Terminal Aerodrome Forecast
Issued by NWS Quad Cities IA IL

Home | Current Version | Previous Version | Text Only | Print | Product List | Glossary On
Versions: 1 2 3 4 5 6 7 8 9 10 11 12 13 14 15 16 17 18 19 20 21 22 23 24 25
000
FTUS43 KDVN 230520
TAFDBQ
TAF
KDBQ 230520Z 2306/2406 20010KT P6SM VCSH BKN120
      TEMPO 2306/2308 3SM TSRA BR BKN025CB
     FM230800 34011KT P6SM SCT020 BKN035
     FM231400 33016KT P6SM SCT035 BKN250
     FM240000 29008KT P6SM SCT250=

USA.gov is the U.S. government's official web portal to all federal, state and local government web resources and services.